N148AW MDJB-MDJB
Flight info
| Callsign | N148AW |
|---|---|
| Flight time | 1h 3m |
| Altitude | 800 |
| Route | VFR |
| Aircraft | B407/L-SFG/C |
Departure
| Time | 2026-05-04 17:03 |
|---|---|
| Airport | La Isabela International Airport (MDJB) |
Arrival
| Time | 2026-05-04 18:07 |
|---|---|
| Airport | La Isabela International Airport (MDJB) |
| Time | Latitude | Longitude | Altitude | Speed | Heading |
|---|---|---|---|---|---|
| 2026-05-04 17:01 | 18.57884 | -69.98263 | 98 ft | 0 kts | 276° |
| 2026-05-04 17:02 | 18.57924 | -69.98322 | 121 ft | 27 kts | 4° |
| 2026-05-04 17:03 | 18.58364 | -69.98214 | 284 ft | 93 kts | 33° |
| 2026-05-04 17:03 | 18.58779 | -69.97691 | 531 ft | 99 kts | 82° |
| 2026-05-04 17:03 | 18.58580 | -69.96281 | 809 ft | 94 kts | 107° |
| 2026-05-04 17:04 | 18.58306 | -69.95125 | 871 ft | 97 kts | 107° |
| 2026-05-04 17:04 | 18.57991 | -69.93645 | 900 ft | 109 kts | 106° |
| 2026-05-04 17:05 | 18.57555 | -69.92024 | 912 ft | 122 kts | 108° |
| 2026-05-04 17:05 | 18.57103 | -69.90220 | 898 ft | 127 kts | 105° |
| 2026-05-04 17:06 | 18.56662 | -69.88446 | 887 ft | 124 kts | 105° |
| 2026-05-04 17:06 | 18.56416 | -69.87595 | 862 ft | 121 kts | 116° |
| 2026-05-04 17:07 | 18.55187 | -69.86528 | 887 ft | 119 kts | 152° |
| 2026-05-04 17:07 | 18.54684 | -69.86292 | 896 ft | 121 kts | 154° |
| 2026-05-04 17:07 | 18.53656 | -69.85793 | 890 ft | 122 kts | 152° |
| 2026-05-04 17:07 | 18.52886 | -69.85416 | 872 ft | 120 kts | 150° |
| 2026-05-04 17:08 | 18.52160 | -69.85007 | 902 ft | 119 kts | 149° |
| 2026-05-04 17:08 | 18.50712 | -69.84148 | 884 ft | 117 kts | 148° |
| 2026-05-04 17:08 | 18.50000 | -69.83746 | 885 ft | 115 kts | 149° |
| 2026-05-04 17:09 | 18.49306 | -69.83339 | 891 ft | 112 kts | 147° |
| 2026-05-04 17:09 | 18.48639 | -69.82960 | 897 ft | 107 kts | 148° |
| 2026-05-04 17:09 | 18.47969 | -69.82603 | 920 ft | 109 kts | 150° |
| 2026-05-04 17:10 | 18.46550 | -69.81767 | 909 ft | 120 kts | 140° |
| 2026-05-04 17:10 | 18.45988 | -69.79355 | 904 ft | 114 kts | 97° |
| 2026-05-04 17:11 | 18.45907 | -69.78543 | 898 ft | 108 kts | 98° |
| 2026-05-04 17:11 | 18.45859 | -69.77756 | 916 ft | 109 kts | 97° |
| 2026-05-04 17:11 | 18.45723 | -69.76131 | 912 ft | 114 kts | 99° |
| 2026-05-04 17:12 | 18.45663 | -69.75283 | 917 ft | 117 kts | 97° |
| 2026-05-04 17:12 | 18.45518 | -69.73565 | 913 ft | 117 kts | 97° |
| 2026-05-04 17:13 | 18.45296 | -69.71036 | 898 ft | 115 kts | 98° |
| 2026-05-04 17:14 | 18.44869 | -69.68593 | 910 ft | 115 kts | 103° |
| 2026-05-04 17:14 | 18.44720 | -69.67771 | 915 ft | 115 kts | 102° |
| 2026-05-04 17:14 | 18.44426 | -69.66073 | 904 ft | 116 kts | 102° |
| 2026-05-04 17:15 | 18.44280 | -69.65251 | 912 ft | 113 kts | 103° |
| 2026-05-04 17:15 | 18.43961 | -69.63546 | 940 ft | 127 kts | 102° |
| 2026-05-04 17:16 | 18.43618 | -69.61729 | 909 ft | 121 kts | 103° |
| 2026-05-04 17:16 | 18.43175 | -69.59221 | 923 ft | 113 kts | 102° |
| 2026-05-04 17:17 | 18.43018 | -69.58391 | 917 ft | 117 kts | 103° |
| 2026-05-04 17:17 | 18.42630 | -69.55762 | 920 ft | 123 kts | 98° |
| 2026-05-04 17:18 | 18.42548 | -69.54875 | 945 ft | 126 kts | 96° |
| 2026-05-04 17:18 | 18.42420 | -69.52992 | 934 ft | 132 kts | 95° |
| 2026-05-04 17:19 | 18.42332 | -69.51703 | 912 ft | 130 kts | 95° |
| 2026-05-04 17:19 | 18.42307 | -69.51319 | 914 ft | 127 kts | 95° |
| 2026-05-04 17:20 | 18.42189 | -69.49579 | 924 ft | 128 kts | 96° |
| 2026-05-04 17:20 | 18.42071 | -69.47738 | 914 ft | 124 kts | 94° |
| 2026-05-04 17:20 | 18.41987 | -69.46832 | 912 ft | 127 kts | 96° |
| 2026-05-04 17:21 | 18.41978 | -69.44932 | 914 ft | 133 kts | 88° |
| 2026-05-04 17:21 | 18.42119 | -69.43086 | 889 ft | 118 kts | 87° |
| 2026-05-04 17:22 | 18.42208 | -69.42244 | 911 ft | 116 kts | 88° |
| 2026-05-04 17:22 | 18.42321 | -69.41388 | 900 ft | 119 kts | 86° |
| 2026-05-04 17:23 | 18.42599 | -69.38842 | 900 ft | 118 kts | 87° |
| 2026-05-04 17:23 | 18.42707 | -69.37978 | 923 ft | 122 kts | 84° |
| 2026-05-04 17:23 | 18.42910 | -69.36182 | 899 ft | 122 kts | 86° |
| 2026-05-04 17:24 | 18.43003 | -69.35300 | 887 ft | 119 kts | 86° |
| 2026-05-04 17:24 | 18.43289 | -69.32734 | 889 ft | 122 kts | 86° |
| 2026-05-04 17:25 | 18.43383 | -69.31860 | 889 ft | 121 kts | 86° |
| 2026-05-04 17:25 | 18.43574 | -69.30091 | 901 ft | 123 kts | 85° |
| 2026-05-04 17:26 | 18.43766 | -69.28230 | 907 ft | 135 kts | 85° |
| 2026-05-04 17:26 | 18.44029 | -69.25429 | 876 ft | 112 kts | 88° |
| 2026-05-04 17:27 | 18.44197 | -69.23754 | 882 ft | 120 kts | 86° |
| 2026-05-04 17:27 | 18.44370 | -69.22037 | 867 ft | 114 kts | 86° |
| 2026-05-04 17:28 | 18.44569 | -69.20397 | 876 ft | 109 kts | 86° |
| 2026-05-04 17:29 | 18.44802 | -69.17810 | 898 ft | 127 kts | 88° |
| 2026-05-04 17:29 | 18.44680 | -69.15122 | 903 ft | 123 kts | 110° |
| 2026-05-04 17:30 | 18.43965 | -69.12613 | 898 ft | 113 kts | 109° |
| 2026-05-04 17:31 | 18.43510 | -69.10999 | 900 ft | 117 kts | 108° |
| 2026-05-04 17:31 | 18.42849 | -69.08486 | 908 ft | 118 kts | 110° |
| 2026-05-04 17:32 | 18.42408 | -69.06838 | 910 ft | 116 kts | 109° |
| 2026-05-04 17:33 | 18.41709 | -69.04410 | 909 ft | 115 kts | 110° |
| 2026-05-04 17:33 | 18.41511 | -69.03596 | 910 ft | 114 kts | 110° |
| 2026-05-04 17:34 | 18.40924 | -69.01186 | 915 ft | 109 kts | 105° |
| 2026-05-04 17:34 | 18.40788 | -69.00374 | 914 ft | 116 kts | 101° |
| 2026-05-04 17:35 | 18.40422 | -68.97827 | 906 ft | 117 kts | 101° |
| 2026-05-04 17:35 | 18.40266 | -68.96116 | 913 ft | 117 kts | 95° |
| 2026-05-04 17:35 | 18.40297 | -68.95234 | 916 ft | 121 kts | 84° |
| 2026-05-04 17:36 | 18.40496 | -68.94363 | 886 ft | 125 kts | 73° |
| 2026-05-04 17:36 | 18.40880 | -68.93597 | 632 ft | 110 kts | 43° |
| 2026-05-04 17:36 | 18.41372 | -68.93272 | 427 ft | 55 kts | 9° |
| 2026-05-04 17:36 | 18.41591 | -68.93297 | 132 ft | 12 kts | 324° |
| 2026-05-04 17:37 | 18.41615 | -68.93333 | 87 ft | 2 kts | 358° |
| 2026-05-04 17:37 | 18.41619 | -68.93334 | 82 ft | 0 kts | 360° |
| 2026-05-04 17:40 | 18.41780 | -68.93424 | 306 ft | 62 kts | 302° |
| 2026-05-04 17:41 | 18.41936 | -68.93977 | 558 ft | 99 kts | 259° |
| 2026-05-04 17:41 | 18.41742 | -68.94738 | 698 ft | 110 kts | 247° |
| 2026-05-04 17:41 | 18.41540 | -68.95468 | 829 ft | 106 kts | 249° |
| 2026-05-04 17:41 | 18.41412 | -68.96239 | 958 ft | 114 kts | 253° |
| 2026-05-04 17:42 | 18.41376 | -68.97122 | 967 ft | 126 kts | 265° |
| 2026-05-04 17:42 | 18.41442 | -68.98070 | 952 ft | 131 kts | 272° |
| 2026-05-04 17:42 | 18.41595 | -68.99021 | 957 ft | 133 kts | 275° |
| 2026-05-04 17:42 | 18.41783 | -68.99970 | 961 ft | 132 kts | 276° |
| 2026-05-04 17:43 | 18.41984 | -69.00917 | 962 ft | 133 kts | 275° |
| 2026-05-04 17:43 | 18.42189 | -69.01873 | 947 ft | 134 kts | 276° |
| 2026-05-04 17:43 | 18.42381 | -69.02823 | 960 ft | 133 kts | 275° |
| 2026-05-04 17:43 | 18.42579 | -69.03795 | 968 ft | 140 kts | 275° |
| 2026-05-04 17:44 | 18.42781 | -69.04823 | 959 ft | 145 kts | 276° |
| 2026-05-04 17:44 | 18.42983 | -69.05849 | 956 ft | 141 kts | 274° |
| 2026-05-04 17:44 | 18.43220 | -69.06848 | 950 ft | 141 kts | 275° |
| 2026-05-04 17:44 | 18.43470 | -69.07836 | 955 ft | 138 kts | 276° |
| 2026-05-04 17:45 | 18.43690 | -69.08818 | 930 ft | 136 kts | 275° |
| 2026-05-04 17:45 | 18.43885 | -69.09758 | 950 ft | 127 kts | 276° |
| 2026-05-04 17:45 | 18.44088 | -69.10677 | 965 ft | 135 kts | 274° |
| 2026-05-04 17:45 | 18.44318 | -69.11658 | 948 ft | 138 kts | 275° |
| 2026-05-04 17:46 | 18.44557 | -69.12649 | 937 ft | 140 kts | 275° |
| 2026-05-04 17:46 | 18.44781 | -69.13612 | 926 ft | 129 kts | 275° |
| 2026-05-04 17:46 | 18.44988 | -69.14521 | 934 ft | 127 kts | 276° |
| 2026-05-04 17:46 | 18.45180 | -69.15439 | 936 ft | 130 kts | 275° |
| 2026-05-04 17:47 | 18.45392 | -69.16374 | 949 ft | 133 kts | 276° |
| 2026-05-04 17:47 | 18.45606 | -69.17341 | 945 ft | 137 kts | 275° |
| 2026-05-04 17:47 | 18.45755 | -69.18328 | 945 ft | 135 kts | 265° |
| 2026-05-04 17:47 | 18.45717 | -69.19322 | 948 ft | 141 kts | 257° |
| 2026-05-04 17:48 | 18.45653 | -69.20350 | 931 ft | 139 kts | 255° |
| 2026-05-04 17:48 | 18.45535 | -69.21338 | 963 ft | 137 kts | 252° |
| 2026-05-04 17:48 | 18.45336 | -69.22364 | 950 ft | 147 kts | 247° |
| 2026-05-04 17:48 | 18.45132 | -69.23396 | 900 ft | 137 kts | 249° |
| 2026-05-04 17:49 | 18.44942 | -69.24352 | 916 ft | 133 kts | 249° |
| 2026-05-04 17:49 | 18.44731 | -69.25305 | 911 ft | 134 kts | 248° |
| 2026-05-04 17:49 | 18.44509 | -69.26252 | 897 ft | 132 kts | 248° |
| 2026-05-04 17:49 | 18.44294 | -69.27175 | 915 ft | 130 kts | 251° |
| 2026-05-04 17:50 | 18.44079 | -69.28116 | 899 ft | 133 kts | 250° |
| 2026-05-04 17:50 | 18.43916 | -69.29071 | 928 ft | 136 kts | 251° |
| 2026-05-04 17:50 | 18.43758 | -69.30066 | 900 ft | 136 kts | 252° |
| 2026-05-04 17:50 | 18.43618 | -69.31016 | 901 ft | 128 kts | 252° |
| 2026-05-04 17:51 | 18.43485 | -69.31934 | 905 ft | 125 kts | 252° |
| 2026-05-04 17:51 | 18.43353 | -69.32844 | 898 ft | 127 kts | 253° |
| 2026-05-04 17:51 | 18.43220 | -69.33722 | 885 ft | 116 kts | 253° |
| 2026-05-04 17:51 | 18.43119 | -69.34539 | 905 ft | 115 kts | 253° |
| 2026-05-04 17:52 | 18.43099 | -69.35406 | 907 ft | 119 kts | 258° |
| 2026-05-04 17:52 | 18.43099 | -69.36274 | 918 ft | 118 kts | 258° |
| 2026-05-04 17:52 | 18.43089 | -69.37172 | 902 ft | 125 kts | 257° |
| 2026-05-04 17:52 | 18.43057 | -69.38075 | 905 ft | 122 kts | 256° |
| 2026-05-04 17:53 | 18.43029 | -69.38974 | 935 ft | 127 kts | 256° |
| 2026-05-04 17:53 | 18.42976 | -69.39947 | 926 ft | 137 kts | 254° |
| 2026-05-04 17:53 | 18.42886 | -69.40942 | 922 ft | 133 kts | 252° |
| 2026-05-04 17:53 | 18.42780 | -69.41909 | 922 ft | 133 kts | 251° |
| 2026-05-04 17:54 | 18.42648 | -69.42883 | 925 ft | 136 kts | 250° |
| 2026-05-04 17:54 | 18.42521 | -69.43883 | 908 ft | 136 kts | 250° |
| 2026-05-04 17:54 | 18.42395 | -69.44839 | 892 ft | 128 kts | 250° |
| 2026-05-04 17:54 | 18.42253 | -69.45708 | 949 ft | 122 kts | 249° |
| 2026-05-04 17:55 | 18.42062 | -69.46633 | 932 ft | 134 kts | 247° |
| 2026-05-04 17:55 | 18.41891 | -69.47591 | 881 ft | 128 kts | 261° |
| 2026-05-04 17:55 | 18.42045 | -69.48487 | 916 ft | 127 kts | 275° |
| 2026-05-04 17:55 | 18.42236 | -69.49388 | 921 ft | 124 kts | 274° |
| 2026-05-04 17:56 | 18.42433 | -69.50284 | 926 ft | 127 kts | 274° |
| 2026-05-04 17:56 | 18.42652 | -69.51188 | 924 ft | 127 kts | 274° |
| 2026-05-04 17:56 | 18.42858 | -69.52093 | 932 ft | 129 kts | 272° |
| 2026-05-04 17:56 | 18.43053 | -69.53015 | 917 ft | 127 kts | 272° |
| 2026-05-04 17:57 | 18.43244 | -69.53904 | 918 ft | 123 kts | 272° |
| 2026-05-04 17:57 | 18.43436 | -69.54774 | 925 ft | 121 kts | 272° |
| 2026-05-04 17:57 | 18.43628 | -69.55640 | 907 ft | 123 kts | 273° |
| 2026-05-04 17:57 | 18.43817 | -69.56539 | 912 ft | 129 kts | 272° |
| 2026-05-04 17:58 | 18.43997 | -69.57470 | 904 ft | 130 kts | 271° |
| 2026-05-04 17:58 | 18.44179 | -69.58398 | 917 ft | 129 kts | 270° |
| 2026-05-04 17:58 | 18.44356 | -69.59333 | 899 ft | 129 kts | 271° |
| 2026-05-04 17:58 | 18.44520 | -69.60255 | 894 ft | 127 kts | 270° |
| 2026-05-04 17:59 | 18.44647 | -69.61143 | 898 ft | 121 kts | 266° |
| 2026-05-04 17:59 | 18.44749 | -69.62028 | 899 ft | 121 kts | 266° |
| 2026-05-04 17:59 | 18.44851 | -69.63852 | 900 ft | 128 kts | 262° |
| 2026-05-04 18:00 | 18.44900 | -69.64787 | 899 ft | 128 kts | 263° |
| 2026-05-04 18:00 | 18.44941 | -69.65728 | 919 ft | 131 kts | 262° |
| 2026-05-04 18:00 | 18.44978 | -69.66712 | 910 ft | 137 kts | 261° |
| 2026-05-04 18:00 | 18.45025 | -69.67716 | 900 ft | 137 kts | 262° |
| 2026-05-04 18:01 | 18.45084 | -69.68695 | 895 ft | 133 kts | 264° |
| 2026-05-04 18:01 | 18.45208 | -69.69654 | 893 ft | 130 kts | 266° |
| 2026-05-04 18:01 | 18.45336 | -69.70581 | 896 ft | 126 kts | 269° |
| 2026-05-04 18:02 | 18.45640 | -69.72367 | 908 ft | 126 kts | 269° |
| 2026-05-04 18:02 | 18.45827 | -69.73285 | 901 ft | 129 kts | 270° |
| 2026-05-04 18:02 | 18.46006 | -69.74212 | 905 ft | 130 kts | 269° |
| 2026-05-04 18:02 | 18.46173 | -69.75126 | 895 ft | 123 kts | 270° |
| 2026-05-04 18:03 | 18.46322 | -69.76002 | 895 ft | 119 kts | 269° |
| 2026-05-04 18:03 | 18.46477 | -69.76856 | 916 ft | 120 kts | 269° |
| 2026-05-04 18:03 | 18.46610 | -69.77766 | 943 ft | 136 kts | 267° |
| 2026-05-04 18:03 | 18.46736 | -69.78804 | 919 ft | 142 kts | 265° |
| 2026-05-04 18:04 | 18.46858 | -69.79838 | 913 ft | 141 kts | 264° |
| 2026-05-04 18:04 | 18.46912 | -69.80862 | 913 ft | 140 kts | 261° |
| 2026-05-04 18:04 | 18.46906 | -69.82883 | 911 ft | 137 kts | 256° |
| 2026-05-04 18:05 | 18.46893 | -69.83875 | 926 ft | 136 kts | 257° |
| 2026-05-04 18:05 | 18.46869 | -69.84900 | 917 ft | 139 kts | 255° |
| 2026-05-04 18:05 | 18.46833 | -69.85903 | 925 ft | 140 kts | 256° |
| 2026-05-04 18:05 | 18.46759 | -69.86934 | 902 ft | 137 kts | 248° |
| 2026-05-04 18:06 | 18.46309 | -69.88831 | 891 ft | 124 kts | 244° |
| 2026-05-04 18:06 | 18.46074 | -69.89675 | 893 ft | 118 kts | 243° |
| 2026-05-04 18:06 | 18.45836 | -69.90467 | 917 ft | 113 kts | 242° |
| 2026-05-04 18:07 | 18.45549 | -69.91226 | 772 ft | 104 kts | 232° |
| 2026-05-04 18:07 | 18.45224 | -69.91787 | 489 ft | 70 kts | 227° |
| 2026-05-04 18:07 | 18.45175 | -69.92114 | 310 ft | 40 kts | 340° |
| 2026-05-04 18:07 | 18.45321 | -69.92117 | 105 ft | 8 kts | 21° |
| 2026-05-04 18:08 | 18.45366 | -69.92084 | 57 ft | 5 kts | 24° |
| 2026-05-04 18:08 | 18.45381 | -69.92078 | 46 ft | 0 kts | 22° |
| 2026-05-04 18:08 | 18.45383 | -69.92077 | 38 ft | 0 kts | 21° |
| 2026-05-04 18:09 | 18.45249 | -69.92081 | 220 ft | 56 kts | 181° |
| 2026-05-04 18:10 | 18.44907 | -69.92489 | 496 ft | 100 kts | 257° |
| 2026-05-04 18:10 | 18.45327 | -69.93207 | 654 ft | 123 kts | 309° |
| 2026-05-04 18:10 | 18.46023 | -69.93746 | 752 ft | 134 kts | 329° |
| 2026-05-04 18:10 | 18.46870 | -69.94202 | 763 ft | 139 kts | 333° |
| 2026-05-04 18:11 | 18.47478 | -69.94435 | 694 ft | 144 kts | 333° |
| 2026-05-04 18:11 | 18.48331 | -69.94860 | 656 ft | 142 kts | 330° |
| 2026-05-04 18:11 | 18.49233 | -69.95286 | 613 ft | 141 kts | 332° |
| 2026-05-04 18:11 | 18.50141 | -69.95716 | 525 ft | 134 kts | 333° |
| 2026-05-04 18:12 | 18.51031 | -69.96061 | 433 ft | 140 kts | 330° |
| 2026-05-04 18:12 | 18.51889 | -69.96497 | 397 ft | 138 kts | 328° |
| 2026-05-04 18:12 | 18.52775 | -69.96937 | 382 ft | 142 kts | 331° |
| 2026-05-04 18:12 | 18.53663 | -69.97380 | 428 ft | 142 kts | 329° |
| 2026-05-04 18:13 | 18.54608 | -69.97681 | 507 ft | 137 kts | 356° |
| 2026-05-04 18:13 | 18.55479 | -69.97711 | 739 ft | 131 kts | 354° |
| 2026-05-04 18:13 | 18.57487 | -69.97729 | 753 ft | 149 kts | 5° |
| 2026-05-04 18:14 | 18.58354 | -69.97866 | 671 ft | 94 kts | 282° |
| 2026-05-04 18:14 | 18.58221 | -69.98289 | 277 ft | 62 kts | 182° |
| 2026-05-04 18:14 | 18.57946 | -69.98318 | 135 ft | 21 kts | 177° |
| 2026-05-04 18:15 | 18.57884 | -69.98261 | 98 ft | 0 kts | 98° |